Aérodrome :







RETROUVEZ-NOUS SUR...

 
LOGIN :

S'inscrire | Disclaimer

   EN    FR    IT 

 









Légende :    VFR   VFR Marginal   IFR   IFR Intensif   IFR Très Intensif
Visi : 
Plafond : 
>= 8 km
>= 3000ft
5 à 8 km
1000 à 3000 ft
1500m à 5 km
500 à 1000 ft
800 à 1500m
200 à 500 ft
< 800m
< 200 ft
Symboles :   Orages  Brouillard  Fortes neiges  Fortes précipitations  Vent > 20 kt






- Altitude de l'aérodrome : 98 ft
- Code IATA : JBQ


MDJB - El Higuero

DERNIER METAR :
  • 192000Z 09006KT 9999 BKN020 29/24 Q1016 RESH

METARs EXPIRÉS :
  • 191900Z 10006KT 9999 SCT018 SCT080 29/24 Q1017
  • 191800Z 00000KT 9999 SCT018 SCT080 28/22 Q1017

TAF TAF MDJB
Valide du 19 à 18h jusqu'au 20 à 18h UTC


191600Z 1918/2018 09010KT 9999 SCT020
PROB30 1918/1922 8000 -SH BKN016
BECMG 2000/2002 00000KT



MET'MAP, la Météo Aéronautique d'un coup d'oeil ! - Copyright ORBIFLY Décembre 2007 - Disclaimer

ORBIFLY MET'MAP TEAM :

Programmation & Développement : Alexandra Zaïnal
Sur une idée originale de : Baudouin d'Aumeries
Assistance à la programmation : Marc-Olivier Méhu
Soutien technique & logistique : Manuel Goepfert

Contact : metmap@orbifly.com




SOURCES & CREDITS :

   NOAA